• Join FlightAware (Why Join?)
  • Login
  • US Flag 
12:32AM EDT


 

Airport Tracker/Info


-or-


 

Live Flight TrackerFlight Track Log ✈ OPT332 ✈ 2013년 Sep 15일 ✈ KSFO - KAAO

Flight Track Log - Related Links

Times and Time Zones

All times are in EDT time to prevent confusion due to time zone crossing. See the OPT332 flight status page for this flight to view local times or setup timezone preferences in your user account.

Time Position Orientation Groundspeed Altitude Reporting Facility
EDT Latitude Longitude Course Direction KTS MPH feet Rate Location/Type
09:13PM 37.6508 -122.3310 54° Northeast 205 236 3,300  Level FlightAware ADS-B
09:13PM 37.6594 -122.3160 54° Northeast 216 249 4,100 2,880 Climbing FlightAware ADS-B
09:14PM 37.6695 -122.3000 51° Northeast 236 272 4,800 2,520 Climbing FlightAware ADS-B
09:14PM 37.6778 -122.2860 53° Northeast 251 289 5,300 2,760 Climbing FlightAware ADS-B
09:14PM 37.6906 -122.2670 50° Northeast 260 299 6,100 3,060 Climbing FlightAware ADS-B
09:15PM 37.7507 -122.1830 48° Northeast 284 327 9,800 3,180 Climbing FlightAware ADS-B
09:16PM 37.7679 -122.1600 47° Northeast 285 328 10,900 3,240 Climbing FlightAware ADS-B
09:16PM 37.7726 -122.1520 53° Northeast 288 331 11,100 2,160 Climbing FlightAware ADS-B
09:16PM 37.7756 -122.1440 65° Northeast 289 333 11,300 2,460 Climbing FlightAware ADS-B
09:16PM 37.7785 -122.1320 73° East 289 333 11,600 2,580 Climbing FlightAware ADS-B
09:16PM 37.7843 -122.1070 74° East 296 341 12,300 2,640 Climbing FlightAware ADS-B
09:18PM 37.8193 -121.9760 71° East 314 361 15,700 2,520 Climbing FlightAware ADS-B
09:18PM 37.8295 -121.9370 72° East 321 369 16,500 2,520 Climbing FlightAware ADS-B
09:18PM 37.8366 -121.8940 78° East 323 372 17,600 1,680 Climbing FlightAware ADS-B
09:20PM 37.8594 -121.7600 78° East 331 381 20,300 2,160 Climbing FlightAware ADS-B
09:21PM 37.8824 -121.6230 78° East 356 410 22,700 2,520 Climbing FlightAware ADS-B
09:22PM 37.9080 -121.4680 78° East 369 425 24,800 1,680 Climbing FlightAware ADS-B
09:22PM 37.9197 -121.3980 78° East 374 430 25,800 1,980 Climbing FlightAware ADS-B
09:23PM 37.9305 -121.3330 78° East 375 432 26,900 1,560 Climbing FlightAware ADS-B
09:24PM 37.9492 -121.2190 78° East 380 437 28,500 1,680 Climbing FlightAware ADS-B
09:25PM 37.9683 -121.0908 78° East 384 442 30,200 2,040 Climbing Oakland Center
09:26PM 37.9903 -120.9572 78° East 389 448 32,200 1,800 Climbing Oakland Center
09:27PM 38.0119 -120.8233 78° East 391 450 34,000 1,680 Climbing Oakland Center
09:28PM 38.0333 -120.6906 78° East 389 448 35,700 1,560 Climbing Oakland Center
09:29PM 38.0536 -120.5575 79° East 387 445 37,300 1,500 Climbing Oakland Center
09:30PM 38.0733 -120.4281 79° East 378 435 38,800 1,560 Climbing Oakland Center
09:31PM 38.0978 -120.2744 79° East 372 428 40,600 1,320 Climbing Oakland Center
09:32PM 38.1164 -120.1483 79° East 366 421 41,600 900 Climbing Oakland Center
09:33PM 38.1389 -120.0214 77° East 369 425 42,500 780 Climbing Oakland Center
09:34PM 38.1575 -119.8950 79° East 367 422 43,200 540 Climbing Oakland Center
09:35PM 38.1761 -119.7664 80° East 370 426 43,700 480 Climbing Oakland Center
09:36PM 38.1958 -119.6344 79° East 379 436 44,300 600 Climbing Oakland Center
09:37PM 38.2158 -119.5042 79° East 377 434 45,000 300 Climbing Oakland Center
09:38PM 38.2386 -119.3506 79° East 386 444 45,000  Level Oakland Center
09:39PM 38.2589 -119.2131 79° East 395 455 45,000  Level Oakland Center
09:40PM 38.2778 -119.0739 80° East 401 461 45,000  Level Oakland Center
09:41PM 38.2986 -118.9306 79° East 411 473 45,000  Level Oakland Center
09:42PM 38.3192 -118.7861 80° East 414 476 45,000  Level Oakland Center
09:43PM 38.3392 -118.6364 80° East 425 489 45,000  Level Oakland Center
09:44PM 38.3644 -118.4628 79° East 422 486 45,000  Level Oakland Center
09:45PM 38.3853 -118.3153 80° East 425 489 45,000  Level Oakland Center
09:46PM 38.4056 -118.1636 80° East 432 497 45,000  Level Oakland Center
09:47PM 38.4272 -118.0089 80° East 436 502 45,000  Level Oakland Center
09:48PM 38.4469 -117.8558 81° East 436 502 45,000  Level Oakland Center
09:49PM 38.4675 -117.7031 80° East 436 502 45,000  Level Oakland Center
09:51PM 38.4875 -117.5497 80° East 436 502 45,000  Level Salt Lake Center
09:52PM 38.5069 -117.3961 81° East 435 501 45,000  Level Salt Lake Center
09:53PM 38.5211 -117.2419 83° East 435 501 45,000  Level Oakland Center
09:54PM 38.5172 -117.0869 92° East 433 498 45,000  Level Oakland Center
09:55PM 38.5136 -116.9328 92° East 432 497 45,000  Level Oakland Center
09:56PM 38.5083 -116.7467 92° East 434 499 45,000  Level Salt Lake Center
09:57PM 38.5047 -116.5928 92° East 433 498 45,000  Level Salt Lake Center
09:58PM 38.5008 -116.4378 92° East 435 501 45,000  Level Salt Lake Center
09:59PM 38.4972 -116.2828 92° East 437 503 45,000  Level Salt Lake Center
10:00PM 38.4917 -116.1278 93° East 437 503 45,000  Level Salt Lake Center
10:01PM 38.4878 -115.9725 92° East 437 503 45,000  Level Salt Lake Center
10:02PM 38.4833 -115.8194 92° East 432 497 45,000  Level Salt Lake Center
10:03PM 38.4781 -115.6644 92° East 437 503 45,000  Level Salt Lake Center
10:04PM 38.4728 -115.5092 92° East 438 504 45,000  Level Salt Lake Center
10:05PM 38.4661 -115.3264 93° East 436 502 45,000  Level Salt Lake Center
10:06PM 38.4614 -115.1878 92° East 439 505 45,000  Level Salt Lake Center
10:07PM 38.4558 -115.0325 93° East 439 505 45,000  Level Salt Lake Center
10:08PM 38.4489 -114.8778 93° East 438 504 45,000  Level Salt Lake Center
10:09PM 38.4417 -114.6906 93° East 440 506 45,000  Level Salt Lake Center
10:10PM 38.4350 -114.5353 93° East 439 505 45,000  Level Salt Lake Center
10:11PM 38.4286 -114.3786 93° East 442 509 45,000  Level Salt Lake Center
10:12PM 38.4228 -114.2228 93° East 442 509 45,000  Level Salt Lake Center
10:13PM 38.4147 -114.0661 94° East 442 509 45,000  Level Salt Lake Center
10:14PM 38.4081 -113.9083 93° East 446 513 45,000  Level Salt Lake Center
10:20PM 38.3611 -113.0260 93° East 443 510 45,000  Level FlightAware ADS-B
10:20PM 38.3610 -112.9850 90° East 443 510 45,000  Level FlightAware ADS-B
10:21PM 38.3675 -112.8020 87° East 443 510 45,000  Level FlightAware ADS-B
10:22PM 38.3718 -112.6630 88° East 442 509 45,000  Level FlightAware ADS-B
10:24PM 38.3790 -112.4280 88° East 441 507 45,000  Level FlightAware ADS-B
10:24PM 38.3817 -112.3300 88° East 442 509 45,000  Level FlightAware ADS-B
10:26PM 38.3889 -112.0690 88° East 441 507 45,000  Level FlightAware ADS-B
10:26PM 38.3909 -111.9890 88° East 440 506 45,000  Level FlightAware ADS-B
10:27PM 38.3929 -111.9120 88° East 440 506 45,000  Level FlightAware ADS-B
10:28PM 38.3967 -111.7540 88° East 441 507 45,000  Level FlightAware ADS-B
10:29PM 38.3997 -111.6270 88° East 441 507 45,000  Level FlightAware ADS-B
10:30PM 38.4056 -111.3500 88° East 442 509 45,000  Level FlightAware ADS-B
10:31PM 38.4071 -111.2710 89° East 442 509 45,000  Level FlightAware ADS-B
10:33PM 38.4123 -110.9830 89° East 444 511 45,000  Level FlightAware ADS-B
10:33PM 38.4138 -110.8950 89° East 444 511 45,000  Level FlightAware ADS-B
10:34PM 38.4161 -110.7333 89° East 443 510 45,000  Level Denver Center
10:35PM 38.4192 -110.5836 88° East 442 509 45,000  Level Denver Center
10:36PM 38.4233 -110.4083 88° East 444 511 45,000  Level Denver Center
10:37PM 38.4261 -110.2578 89° East 445 512 45,000  Level Denver Center
10:39PM 38.4308 -110.0592 88° East 442 509 45,000  Level Denver Center
10:40PM 38.4339 -109.9097 88° East 443 510 45,000  Level Denver Center
10:41PM 38.4372 -109.7083 89° East 445 512 45,000  Level Denver Center
10:42PM 38.4394 -109.5583 89° East 445 512 45,000  Level Denver Center
10:43PM 38.4419 -109.3867 89° East 437 503 45,000  Level Denver Center
10:44PM 38.4442 -109.2342 89° East 444 511 45,000  Level Denver Center
10:45PM 38.4464 -109.0592 89° East 444 511 45,000  Level Denver Center
10:46PM 38.4483 -108.9092 89° East 444 511 45,000  Level Denver Center
10:47PM 38.4500 -108.7333 89° East 443 510 45,000  Level Denver Center
10:48PM 38.4511 -108.5817 89° East 447 514 45,000  Level Denver Center
10:49PM 38.4514 -108.4081 90° East 442 509 45,000  Level Denver Center
10:50PM 38.4522 -108.2569 90° East 445 512 45,000  Level Denver Center
10:51PM 38.4528 -108.1064 90° East 445 512 45,000  Level Denver Center
10:52PM 38.4531 -107.9303 90° East 446 513 45,000  Level Denver Center
10:53PM 38.4542 -107.7781 89° East 449 517 45,000  Level Denver Center
10:54PM 38.4525 -107.6022 91° East 447 514 45,000  Level Denver Center
10:55PM 38.4533 -107.4492 90° East 449 517 45,000  Level Denver Center
10:56PM 38.4531 -107.2717 90° East 449 517 45,000  Level Denver Center
10:57PM 38.4517 -107.1381 91° East 451 519 45,000  Level Denver Center
10:58PM 38.4489 -106.9486 91° East 447 514 45,000  Level Denver Center
10:59PM 38.4383 -106.7900 95° East 450 518 45,000  Level Denver Center
11:00PM 38.4303 -106.6311 94° East 450 518 45,000  Level Denver Center
11:01PM 38.4219 -106.4717 94° East 451 519 45,000  Level Denver Center
11:03PM 38.4125 -106.3114 94° East 452 520 45,000  Level Denver Center
11:04PM 38.4033 -106.1342 94° East 454 522 45,000  Level Denver Center
11:05PM 38.3944 -105.9803 94° East 454 522 45,000  Level Denver Center
11:06PM 38.3847 -105.8228 94° East 454 522 45,000  Level Denver Center
11:07PM 38.3756 -105.6639 94° East 453 521 45,000  Level Denver Center
11:08PM 38.3636 -105.4719 94° East 455 524 45,000  Level Denver Center
11:09PM 38.3539 -105.3122 94° East 456 525 45,000  Level Denver Center
11:10PM 38.3458 -105.1850 95° East 454 522 45,000  Level Denver Center
11:11PM 38.3328 -104.9828 95° East 456 525 45,000  Level Denver Center
11:12PM 38.3228 -104.8289 95° East 455 524 45,000  Level Denver Center
11:13PM 38.3119 -104.6753 95° East 455 524 45,000  Level Denver Center
11:14PM 38.2989 -104.4972 95° East 453 521 45,000  Level Denver Center
11:15PM 38.2875 -104.3444 95° East 452 520 45,000  Level Denver Center
11:16PM 38.2717 -104.1647 96° East 455 524 45,000  Level Denver Center
11:17PM 38.2583 -104.0111 96° East 454 522 45,000  Level Denver Center
11:18PM 38.2450 -103.8583 96° East 453 521 45,000  Level Denver Center
11:19PM 38.2289 -103.6817 97° East 449 517 45,000  Level Denver Center
11:20PM 38.2142 -103.5325 97° East 446 513 45,000  Level Denver Center
11:21PM 38.2008 -103.3833 96° East 444 511 45,000  Level Denver Center
11:22PM 38.1842 -103.2100 97° East 441 507 45,000  Level Denver Center
11:23PM 38.1689 -103.0531 97° East 439 505 45,000  Level Denver Center
11:24PM 38.1542 -102.9072 97° East 438 504 45,000  Level Denver Center
11:25PM 38.1375 -102.7367 97° East 437 503 45,000  Level Denver Center
11:26PM 38.1233 -102.5900 97° East 438 504 45,000  Level Denver Center
11:27PM 38.1083 -102.4431 97° East 439 505 45,000  Level Denver Center
11:28PM 38.0889 -102.2719 98° East 439 505 45,000  Level Denver Center
11:29PM 38.0744 -102.1250 97° East 439 505 45,000  Level Denver Center
11:30PM 38.0539 -101.9294 98° East 439 505 45,000  Level Denver Center
11:31PM 38.0381 -101.7819 98° East 440 506 45,000  Level Denver Center
11:32PM 38.0197 -101.6097 98° East 442 509 45,000  Level Denver Center
11:33PM 38.0033 -101.4617 98° East 444 511 45,000  Level Denver Center
11:34PM 37.9861 -101.3125 98° East 447 514 45,000  Level Denver Center
11:35PM 37.9669 -101.1378 98° East 447 514 45,000  Level Denver Center
11:36PM 37.9497 -100.9853 98° East 452 520 45,000  Level Denver Center
11:37PM 37.9319 -100.8325 98° East 453 521 45,000  Level Denver Center
11:39PM 37.9164 -100.6519 96° East 456 525 45,000  Level Kansas City Center
11:40PM 37.9089 -100.4722 93° East 457 526 45,000  Level Kansas City Center
11:41PM 37.9017 -100.3192 93° East 454 522 45,000  Level Kansas City Center
11:42PM 37.8944 -100.1650 93° East 456 525 45,000  Level Kansas City Center
11:43PM 37.8861 -99.9869 93° East 454 522 45,000  Level Kansas City Center
11:44PM 37.8786 -99.8347 94° East 453 521 45,000 -60 Level Kansas City Center
11:45PM 37.8708 -99.6844 94° East 450 518 44,900 -1,800 Descending Kansas City Center
11:46PM 37.8625 -99.5058 93° East 454 522 41,400 -3,180 Descending Kansas City Center
11:47PM 37.8536 -99.3542 94° East 467 537 38,700 -2,940 Descending Kansas City Center
11:48PM 37.8447 -99.1931 94° East 463 533 35,500 -3,120 Descending Kansas City Center
11:49PM 37.8358 -99.0367 94° East 450 518 32,200 -2,880 Descending Kansas City Center
11:50PM 37.8281 -98.8856 94° East 437 503 29,700 -2,640 Descending Kansas City Center
11:51PM 37.8183 -98.7339 95° East 433 498 27,100 -2,760 Descending Kansas City Center
11:51PM 37.8117 -98.6214 94° East 451 519 25,200 -2,760 Descending Kansas City Center
11:52PM 37.8089 -98.5703 94° East 458 527 24,300 -2,940 Descending Kansas City Center
11:52PM 37.8053 -98.5219 95° East 467 537 23,500 -2,460 Descending Kansas City Center
11:53PM 37.8000 -98.4203 94° East 433 498 21,800 -2,340 Descending Kansas City Center
11:53PM 37.7967 -98.3775 96° East 393 452 21,100 -2,280 Descending Kansas City Center
11:54PM 37.7917 -98.2889 94° East 378 435 19,600 -2,220 Descending Kansas City Center
11:54PM 37.7892 -98.2489 95° East 351 404 18,900 -2,040 Descending Kansas City Center
11:55PM 37.7839 -98.1658 95° East 361 415 17,500 -2,220 Descending Kansas City Center
11:55PM 37.7800 -98.1261 97° East 348 400 16,700 -2,520 Descending Kansas City Center
11:56PM 37.7750 -98.0350 94° East 348 400 15,000 -2,640 Descending Kansas City Center
11:56PM 37.7728 -98.0000 95° East 338 389 14,100 -2,400 Descending Kansas City Center
11:57PM 37.7681 -97.9347 95° East 332 382 12,600 -2,580 Descending Kansas City Center
11:57PM 37.7644 -97.8875 96° East 315 362 11,500 -3,120 Descending Kansas City Center
11:58PM 37.7600 -97.8078 94° East 310 357 9,600 -2,280 Descending Kansas City Center
11:58PM 37.7586 -97.7825 94° East 301 346 9,200 -1,800 Descending Kansas City Center
11:59PM 37.7528 -97.7033 95° East 304 350 7,800 -1,800 Descending Kansas City Center
11:59PM 37.7506 -97.6753 96° East 303 349 7,400 -1,620 Descending Kansas City Center
12:00AM 37.7461 -97.5986 94° East 303 349 6,200 -1,620 Descending Kansas City Center
12:00AM 37.7447 -97.5706 94° East 303 349 5,800 -1,560 Descending Kansas City Center
12:01AM 37.7456 -97.4956 89° East 298 343 4,600 -1,620 Descending Kansas City Center
12:01AM 37.7453 -97.4672 91° East 290 334 4,200 -1,020 Descending Kansas City Center
12:02AM 37.7478 -97.4053 87° East 275 316 3,600 -1,020 Descending Kansas City Center
12:02AM 37.7475 -97.3822 91° East 211 243 3,200 -600 Descending Kansas City Center
12:03AM 37.7633 -97.3517 57° Northeast 228 262 3,000 -240 Descending Kansas City Center
12:03AM 37.7778 -97.3483 10° North 169 194 3,000 -120 Level Kansas City Center
12:04AM 37.8128 -97.3408 10° North 198 228 2,900  Descending Kansas City Center
12:04AM 37.8272 -97.3381 North 179 206 3,000 60 Climbing Kansas City Center
12:05AM 37.8586 -97.3328 North 182 209 3,000  Level Kansas City Center
12:05AM 37.8706 -97.3311 North 151 174 3,000  Level Kansas City Center
12:06AM 37.8994 -97.3264 North 165 190 3,000  Level Kansas City Center
12:06AM 37.9119 -97.3247 North 145 167 3,000  Level Kansas City Center
12:07AM 37.9264 -97.3042 48° Northeast 149 171 3,000  Level Kansas City Center
12:07AM 37.9247 -97.2828 96° East 139 160 3,000  Level Kansas City Center
12:08AM 37.9222 -97.2544 96° East 146 168 3,000  Level Kansas City Center
12:08AM 37.9222 -97.2356 90° East 137 158 3,000  Level Kansas City Center
12:09AM 37.9092 -97.2147 128° Southeast 147 169 3,000  Level Kansas City Center
12:09AM 37.8947 -97.2133 176° South 138 159 3,000  Level Kansas City Center
12:10AM 37.8717 -97.2075 169° South 141 162 3,000  Level Kansas City Center
12:10AM 37.8583 -97.2058 174° South 130 150 3,000 -120 Level Kansas City Center
12:11AM 37.8361 -97.2061 181° South 135 155 2,900 -300 Descending Kansas City Center
12:11AM 37.8208 -97.2092 189° South 144 166 2,700 -720 Descending Kansas City Center
12:12AM 37.8000 -97.2142 191° South 132 152 2,200 -720 Descending Kansas City Center
12:12AM 37.7856 -97.2147 182° South 134 154 2,000 -720 Descending Kansas City Center
12:13AM 37.7631 -97.2192 189° South 132 152 1,500 -660 Descending Kansas City Center